Last 48 Hours

Top Stn/Summit - 11,053ft

15 Minute Data | America/Los_Angeles
as of 9/1/26 11:56 AM PDT
Date & Time Temp (°F) WindChill (°F) RH (%) Dew Pt (°F) Wet Bulb (°F) Wind Dir (°) Wind Spd (mph) Wind Gust (mph) Wind Gst Dir (°) Daily Min Temp (°F) Daily Max Temp (°F) Daily Max Wind (mph)
9/1/26 - 1145 41.7 30.5 50 24.6 35.2 SW | 228 26.5 37.6 SW | 233 30.9 42.3 45.4
9/1/26 - 1130 41.4 30.0 53 25.4 35.3 SW | 229 24.4 40.0 SW | 234 30.9 41.8 45.4
9/1/26 - 1115 40.8 29.2 56 26.2 35.2 SW | 227 25.8 38.7 SW | 216 30.9 41.1 45.4
9/1/26 - 1100 40.7 29.6 56 26.3 35.2 SW | 227 22.8 35.0 SW | 221 30.9 41.1 45.4
9/1/26 - 1045 39.5 28.2 58 25.8 34.3 SW | 232 22.4 32.6 SW | 220 30.9 40.1 45.4
9/1/26 - 1030 39.3 27.7 61 27.0 34.6 SW | 230 24.0 33.9 SW | 216 30.9 39.6 45.4
9/1/26 - 1015 38.7 26.7 63 27.4 34.3 SW | 226 25.2 35.0 SW | 223 30.9 38.9 45.4
9/1/26 - 1000 38.0 25.9 66 27.6 34.0 SW | 224 25.2 33.4 SW | 223 30.9 38.4 45.4
9/1/26 - 0945 37.1 24.8 69 27.8 33.6 SW | 226 24.9 32.0 SW | 228 30.9 37.6 45.4
9/1/26 - 0930 36.8 24.3 71 28.3 33.5 SW | 226 24.5 33.5 SW | 227 30.9 37.0 45.4
9/1/26 - 0915 36.1 23.4 75 29.0 33.3 SW | 226 24.8 32.0 SW | 226 30.9 36.6 45.4
9/1/26 - 0900 35.4 22.5 79 29.7 33.1 SW | 226 24.7 31.6 SW | 223 30.9 36.0 45.4
9/1/26 - 0845 34.6 21.6 84 30.3 32.9 SW | 222 23.5 31.5 SW | 220 30.9 35.2 45.4
9/1/26 - 0830 33.8 20.5 88 30.7 32.6 SW | 226 24.4 31.5 SW | 222 30.9 35.2 45.4
9/1/26 - 0815 33.0 18.8 94 31.5 32.4 SW | 220 26.5 34.8 SSW | 213 30.9 35.2 45.4
9/1/26 - 0800 32.9 18.2 94 31.3 32.2 SW | 220 28.8 36.7 SW | 225 30.9 35.2 45.4
9/1/26 - 0745 32.5 17.2 96 31.4 32.0 SW | 223 30.8 40.3 SW | 228 30.9 35.2 45.4
9/1/26 - 0730 32.0 16.4 98 31.5 31.7 SW | 223 32.1 41.1 SW | 222 30.9 35.2 45.4
9/1/26 - 0715 31.6 15.7 98 31.1 31.3 SW | 225 33.1 41.7 SW | 224 30.9 35.2 45.4
9/1/26 - 0700 31.2 15.0 98 30.7 31.0 SW | 224 34.1 42.7 SW | 220 30.9 35.2 45.4
9/1/26 - 0645 31.1 14.8 98 30.6 30.8 SW | 224 34.3 42.9 SW | 226 30.9 35.2 45.4
9/1/26 - 0630 31.2 14.9 96 30.1 30.7 SW | 224 34.7 42.8 SW | 222 30.9 35.2 45.4
9/1/26 - 0615 31.6 15.2 94 30.0 30.9 SW | 223 35.2 45.4 SW | 222 31.4 35.2 45.4
9/1/26 - 0600 31.6 15.7 96 30.5 31.1 SW | 224 33.4 41.3 SW | 218 31.5 35.2 41.3
9/1/26 - 0545 31.7 16.2 96 30.8 31.2 SW | 226 31.9 38.8 SW | 228 31.5 35.2 40.1
9/1/26 - 0530 31.8 16.3 96 30.8 31.4 SW | 228 32.0 38.9 SW | 228 31.6 35.2 40.1
9/1/26 - 0515 32.2 17.0 94 30.7 31.6 SW | 228 30.8 38.6 SW | 226 32.1 35.2 40.1
9/1/26 - 0500 32.7 17.6 90 30.2 31.6 SW | 228 30.9 38.2 SW | 228 32.3 35.2 40.1
9/1/26 - 0445 33.0 18.1 88 30.0 31.8 SW | 227 31.2 38.2 SW | 230 32.9 35.2 40.1
9/1/26 - 0430 33.1 18.0 88 30.1 31.9 SW | 227 32.3 40.1 SW | 229 32.9 35.2 40.1
9/1/26 - 0415 33.5 18.7 87 30.1 32.2 SW | 228 31.2 38.7 SW | 225 33.3 35.2 38.7
9/1/26 - 0400 33.6 18.9 87 30.2 32.3 SW | 227 31.0 38.2 SW | 226 33.3 35.2 38.2
9/1/26 - 0345 33.6 19.1 88 30.4 32.3 SW | 229 30.6 37.4 SW | 229 33.3 35.2 38.2
9/1/26 - 0330 33.7 19.2 88 30.6 32.5 SW | 229 30.4 37.6 SW | 227 33.3 35.2 38.2
9/1/26 - 0315 33.5 18.7 90 30.8 32.4 SW | 228 31.4 38.2 SW | 229 33.3 35.2 38.2
9/1/26 - 0300 33.7 19.3 90 31.2 32.7 SW | 228 29.9 37.2 SW | 225 33.6 35.2 37.2
9/1/26 - 0245 34.1 19.9 89 31.1 32.9 SW | 228 28.5 36.7 SW | 231 33.8 35.2 36.8
9/1/26 - 0230 34.3 20.3 89 31.3 33.1 SW | 228 28.5 35.9 SW | 231 34.1 35.2 36.8
9/1/26 - 0215 34.3 20.4 91 31.8 33.3 SW | 229 28.2 35.2 SW | 229 34.1 35.2 36.8
9/1/26 - 0200 34.7 21.1 90 32.1 33.6 SW | 229 26.7 34.2 SW | 230 34.6 35.2 36.8
9/1/26 - 0145 34.8 21.1 91 32.5 33.9 SW | 229 27.6 36.1 SW | 226 34.7 35.2 36.8
9/1/26 - 0130 34.9 21.2 92 32.8 34.0 SW | 230 28.0 35.1 SW | 231 34.8 35.2 36.8
9/1/26 - 0115 35.1 21.2 92 32.9 34.2 SW | 230 28.6 36.8 SW | 221 35.0 35.2 36.8
9/1/26 - 0100 35.5 21.4 92 33.4 34.7 SW | 228 31.5 39.4 SW | 227 35.2 50.7 39.4
9/1/26 - 0045 36.1 22.2 91 33.9 35.2 SW | 226 31.9 39.4 SW | 224 35.8 50.7 39.4
9/1/26 - 0030 36.6 23.2 90 34.0 35.6 SW | 227 29.7 36.9 SW | 225 36.3 50.7 38.4
9/1/26 - 0015 36.9 23.6 90 34.1 35.8 SW | 226 30.3 37.3 SW | 224 36.8 50.7 38.4
9/1/26 - 0000 37.1 23.8 89 34.1 35.9 SW | 227 30.6 38.4 SW | 223 37.0 50.7 38.4
8/31/26 - 2345 37.4 24.2 88 34.0 36.0 SW | 227 29.9 38.4 SW | 226 37.1 50.7 38.4
8/31/26 - 2330 37.8 24.9 86 34.1 36.3 SW | 225 29.6 36.8 SW | 228 37.4 50.7 36.9
8/31/26 - 2315 38.1 25.3 86 34.2 36.5 SW | 224 29.9 35.8 SW | 225 37.5 50.7 36.9
8/31/26 - 2300 37.9 25.1 86 34.0 36.4 SW | 225 29.9 36.7 SW | 224 37.5 50.7 36.9
8/31/26 - 2245 37.9 25.2 85 33.7 36.2 SW | 224 29.1 35.3 SW | 222 37.5 50.7 36.9
8/31/26 - 2230 37.9 25.3 84 33.5 36.1 SW | 221 27.8 35.8 SW | 222 37.7 50.7 36.9
8/31/26 - 2215 38.2 26.2 83 33.5 36.2 SW | 218 25.3 31.6 SW | 221 37.7 50.7 36.9
8/31/26 - 2200 39.3 28.1 81 34.0 37.1 SW | 216 24.1 29.4 SW | 216 37.8 50.7 36.9
8/31/26 - 2145 40.2 29.1 80 34.4 37.8 SW | 214 24.0 30.9 SW | 214 37.8 50.7 36.9
8/31/26 - 2130 40.9 30.6 78 34.5 38.2 SW | 214 21.8 27.4 SW | 215 37.8 50.7 36.9
8/31/26 - 2115 40.8 30.7 78 34.6 38.2 SW | 214 21.4 26.0 SW | 215 37.8 50.7 36.9
8/31/26 - 2100 40.6 30.7 79 34.5 38.1 SSW | 211 20.0 25.2 SW | 215 37.8 50.7 36.9
8/31/26 - 2045 38.3 26.9 85 34.2 36.6 SW | 216 22.2 29.3 SW | 216 37.8 50.7 36.9
8/31/26 - 2030 38.2 26.8 87 34.6 36.8 SW | 218 23.3 29.2 SW | 219 38.0 50.7 36.9
8/31/26 - 2015 38.4 26.4 87 34.9 37.0 SW | 219 25.5 33.2 SW | 218 38.1 50.7 36.9
8/31/26 - 2000 39.2 27.6 86 35.3 37.6 SW | 216 25.7 33.0 SSW | 212 38.9 50.7 36.9
8/31/26 - 1945 40.4 29.1 83 35.7 38.5 SSW | 213 26.0 33.0 SW | 214 39.7 50.7 36.9
8/31/26 - 1930 41.4 30.0 81 36.0 39.2 SW | 214 27.8 35.5 SSW | 212 40.2 50.7 36.9
8/31/26 - 1915 41.6 30.8 82 36.5 39.5 SW | 216 25.7 33.2 SSW | 213 40.2 50.7 36.9
8/31/26 - 1900 42.2 31.9 81 36.8 40.0 SW | 219 23.9 31.1 SW | 222 40.2 50.7 36.9
8/31/26 - 1845 43.1 33.0 79 37.0 40.5 SW | 222 23.6 31.2 SW | 229 40.2 50.7 36.9
8/31/26 - 1830 44.1 34.5 77 37.4 41.2 SW | 229 22.8 31.3 SW | 224 40.2 50.7 36.9
8/31/26 - 1815 44.6 34.9 76 37.6 41.6 SW | 227 24.5 32.6 SW | 229 40.2 50.7 36.9
8/31/26 - 1800 44.9 35.5 76 37.8 41.9 SW | 224 23.2 32.1 SW | 223 40.2 50.7 36.9
8/31/26 - 1745 45.5 36.3 75 38.0 42.3 SW | 229 22.7 33.5 SW | 228 40.2 50.7 36.9
8/31/26 - 1730 46.1 36.9 73 38.1 42.6 SW | 230 23.5 35.2 SW | 229 40.2 50.7 36.9
8/31/26 - 1715 46.6 37.6 72 37.9 42.8 SW | 231 24.0 33.2 SW | 226 40.2 50.7 36.9
8/31/26 - 1700 47.6 38.6 69 38.0 43.3 SW | 230 25.8 36.3 SW | 227 40.2 50.7 36.9
8/31/26 - 1645 48.0 39.5 68 38.1 43.5 SW | 232 22.4 34.9 SW | 218 40.2 50.7 36.9
8/31/26 - 1630 48.2 39.7 66 37.5 43.4 SW | 234 23.5 34.2 SW | 236 40.2 50.7 36.9
8/31/26 - 1615 48.4 39.8 65 37.2 43.4 SW | 233 25.7 36.2 WSW | 240 40.2 50.7 36.9
8/31/26 - 1600 49.0 40.6 63 36.9 43.5 SW | 235 24.1 36.9 SW | 225 40.2 50.7 36.9
8/31/26 - 1545 49.3 41.0 61 36.4 43.5 SW | 230 24.0 36.7 SW | 217 40.2 50.7 36.7
8/31/26 - 1530 50.0 - 59 36.1 43.7 SW | 230 20.8 32.4 SW | 235 40.2 50.7 32.7
8/31/26 - 1515 49.9 42.3 59 36.0 43.6 SW | 233 22.3 32.5 SW | 227 40.2 50.7 32.7
8/31/26 - 1500 50.0 - 58 35.7 43.6 SW | 235 19.4 32.7 SW | 222 40.2 50.7 32.7
8/31/26 - 1445 50.0 42.9 57 35.6 43.5 WSW | 239 16.6 31.8 SW | 220 40.2 50.7 32.0
8/31/26 - 1430 50.1 - 56 35.1 43.4 SW | 234 18.0 32.0 WSW | 237 40.2 50.7 32.0
8/31/26 - 1415 50.1 - 55 34.4 43.0 WSW | 238 15.1 28.6 WSW | 237 40.2 50.7 31.5
8/31/26 - 1400 50.2 - 52 33.6 42.8 SW | 234 16.0 28.4 SW | 216 40.2 50.7 31.5
8/31/26 - 1345 49.7 42.8 52 32.8 42.2 SW | 235 16.5 28.4 SW | 229 40.2 50.3 31.5
8/31/26 - 1330 50.0 42.9 51 32.4 42.2 SW | 228 19.0 28.9 SW | 229 40.2 50.3 31.5
8/31/26 - 1315 49.9 42.7 50 31.8 42.0 SW | 224 18.5 29.6 SW | 222 40.2 50.2 31.5
8/31/26 - 1300 49.8 42.4 49 31.4 41.8 SW | 219 19.4 31.5 SW | 219 40.2 50.1 31.5
8/31/26 - 1245 49.2 42.3 50 31.2 41.4 SW | 227 16.9 25.8 SW | 221 40.2 49.7 28.9
8/31/26 - 1230 49.4 42.2 48 30.5 41.2 SW | 229 17.9 28.9 SW | 223 40.2 49.7 28.9
8/31/26 - 1215 49.3 43.0 48 30.5 41.2 SW | 228 15.5 22.2 SW | 218 40.2 49.6 22.2
8/31/26 - 1200 48.9 42.7 49 30.5 41.0 SW | 228 13.2 21.7 SW | 227 40.2 49.3 21.7
8/31/26 - 1145 48.4 42.2 48 29.4 40.4 SW | 230 12.8 20.8 SW | 220 40.2 48.8 20.8
8/31/26 - 1130 47.8 42.4 48 28.9 39.9 SW | 235 9.0 16.5 SW | 231 40.2 48.2 17.0
8/31/26 - 1115 47.7 42.8 47 28.4 39.7 SW | 228 6.1 16.6 SW | 222 40.2 48.1 17.0
8/31/26 - 1100 47.4 42.4 46 27.5 39.2 SW | 222 8.0 14.3 SW | 224 40.2 47.7 17.0
8/31/26 - 1045 47.2 42.6 46 27.6 39.1 SW | 218 7.5 11.8 SW | 219 40.2 47.4 17.0
8/31/26 - 1030 47.0 42.9 48 28.5 39.3 SW | 217 6.7 10.3 SW | 225 40.2 47.4 17.0
8/31/26 - 1015 47.0 43.5 48 28.3 39.3 SSW | 212 4.9 9.6 SW | 216 40.2 47.4 17.0
8/31/26 - 1000 47.1 44.4 43 26.0 38.6 SSW | 211 3.8 7.6 SSW | 209 40.2 47.4 17.0
8/31/26 - 0945 47.3 45.5 45 27.2 39.1 SSW | 209 3.2 5.5 SSW | 212 40.2 47.4 17.0
8/31/26 - 0930 46.6 43.8 46 27.2 38.7 SSW | 208 4.1 7.4 SSW | 209 40.2 47.3 17.0
8/31/26 - 0915 46.7 42.6 41 24.6 38.0 SSW | 213 6.5 10.2 SSW | 212 40.2 47.3 17.0
8/31/26 - 0900 46.6 41.2 38 22.3 37.2 SW | 215 9.2 14.0 SW | 217 40.2 47.3 17.0
8/31/26 - 0845 46.2 41.4 37 21.5 36.8 SSW | 209 8.3 11.4 SSW | 212 40.2 47.1 17.0
8/31/26 - 0830 46.2 41.5 33 18.7 36.1 SSW | 204 7.9 11.1 SSW | 205 40.2 47.1 17.0
8/31/26 - 0815 45.8 40.7 39 22.0 36.8 SSW | 204 8.7 12.1 SSW | 205 40.2 47.1 17.0
8/31/26 - 0800 46.7 41.3 42 25.0 38.1 SSW | 205 10.0 13.8 SSW | 203 40.2 47.1 17.0
8/31/26 - 0745 45.9 39.5 46 26.2 38.0 SSW | 203 11.7 17.0 SSW | 203 40.2 46.4 17.0
8/31/26 - 0730 44.3 37.5 52 27.6 37.6 SSW | 203 12.3 16.6 SSW | 201 40.2 46.4 16.6
8/31/26 - 0715 42.6 35.7 56 28.2 36.9 SSW | 207 11.5 15.4 SSW | 210 40.2 46.4 15.4
8/31/26 - 0700 41.5 34.6 60 28.6 36.4 SSW | 206 11.0 13.9 SSW | 205 40.2 46.4 15.4
8/31/26 - 0645 40.5 33.5 69 31.0 36.7 SSW | 207 10.4 13.7 SSW | 209 40.2 46.4 15.4
8/31/26 - 0630 40.6 33.6 71 32.0 37.1 SSW | 207 10.0 13.4 SSW | 207 40.3 46.4 15.4
8/31/26 - 0615 40.9 34.4 72 32.7 37.6 SSW | 206 9.4 12.4 SSW | 202 40.7 46.4 15.4
8/31/26 - 0600 41.2 34.9 66 30.7 37.0 SSW | 204 9.4 11.8 SSW | 199 41.0 46.4 15.4
8/31/26 - 0545 41.6 35.5 59 28.5 36.4 SSW | 202 8.6 12.0 SSW | 194 41.5 46.4 15.4
8/31/26 - 0530 41.6 36.6 61 29.3 36.7 SSW | 204 6.7 9.0 SSW | 208 41.5 46.4 15.4
8/31/26 - 0515 41.7 36.0 60 28.8 36.6 SSW | 209 7.7 11.1 SSW | 208 41.6 46.4 15.4
8/31/26 - 0500 42.0 36.1 59 28.9 36.8 SSW | 209 8.3 11.7 SSW | 209 41.8 46.4 15.4
8/31/26 - 0445 42.6 36.0 58 28.9 37.1 SSW | 210 10.2 14.2 SSW | 213 42.2 46.4 15.4
8/31/26 - 0430 42.9 36.6 55 27.7 36.9 SW | 214 10.2 13.1 SW | 214 42.3 46.4 15.4
8/31/26 - 0415 43.6 37.0 51 26.8 37.0 SW | 215 11.2 15.4 SW | 215 42.8 46.4 15.4
8/31/26 - 0400 43.2 36.9 53 27.3 36.9 SW | 214 9.6 14.6 SSW | 212 42.9 46.4 14.6
8/31/26 - 0345 43.2 37.5 55 28.1 37.2 SSW | 212 8.6 11.9 SW | 214 43.0 46.4 14.0
8/31/26 - 0330 43.4 38.3 53 27.2 37.0 SSW | 209 7.5 10.0 SSW | 209 43.0 46.4 14.0
8/31/26 - 0315 44.3 42.7 51 27.4 37.5 SSW | 206 2.4 4.7 SSW | 209 44.0 46.4 14.0
8/31/26 - 0300 44.9 - 52 28.5 38.2 S | 172 0.4 1.4 SSW | 202 44.8 46.4 14.0
8/31/26 - 0245 45.0 - 52 28.6 38.3 SSE | 158 1.0 3.6 SSE | 158 44.8 46.4 14.0
8/31/26 - 0230 45.5 42.6 51 28.6 38.6 SSE | 155 4.1 6.8 SSE | 161 45.2 46.4 14.0
8/31/26 - 0215 45.7 41.9 51 28.6 38.7 SSE | 164 6.0 8.6 S | 169 45.6 46.4 14.0
8/31/26 - 0200 45.8 40.8 50 28.4 38.7 S | 175 8.4 12.0 S | 181 45.8 46.4 14.0
8/31/26 - 0145 46.0 40.9 50 28.3 38.7 S | 176 8.3 12.5 S | 182 45.8 46.4 14.0
8/31/26 - 0130 45.9 40.6 49 28.0 38.6 S | 174 8.6 13.4 S | 176 45.8 46.4 14.0
8/31/26 - 0115 46.0 40.5 49 27.8 38.6 S | 178 9.4 14.0 S | 172 45.8 46.4 14.0
8/31/26 - 0100 46.2 41.0 48 27.8 38.7 S | 171 8.4 13.4 S | 178 37.8 52.8 36.0
8/31/26 - 0045 45.9 38.9 49 27.6 38.5 SSE | 163 12.2 21.5 S | 169 37.8 52.8 36.0
8/31/26 - 0030 45.8 39.6 48 27.3 38.3 SSE | 159 11.5 16.5 SE | 146 37.8 52.8 36.0
8/31/26 - 0015 46.4 39.7 47 27.4 38.7 S | 183 13.7 19.1 S | 179 37.8 52.8 36.0
8/31/26 - 0000 46.5 39.6 47 27.3 38.7 S | 191 14.5 19.4 S | 188 37.8 52.8 36.0
8/30/26 - 2345 46.5 39.3 47 27.2 38.6 SSW | 192 15.3 21.4 S | 187 37.8 52.8 36.0
8/30/26 - 2330 46.6 39.6 46 27.1 38.7 S | 188 14.6 21.0 S | 190 37.8 52.8 36.0
8/30/26 - 2315 45.7 38.1 51 28.3 38.6 S | 180 15.6 22.3 S | 184 37.8 52.8 36.0
8/30/26 - 2300 45.2 38.6 55 30.2 39.0 S | 173 11.8 18.2 SSE | 167 37.8 52.8 36.0
8/30/26 - 2245 45.7 39.8 57 31.3 39.6 S | 180 10.9 14.7 S | 177 37.8 52.8 36.0
8/30/26 - 2230 46.5 39.8 56 31.7 40.2 SSW | 199 13.7 18.7 SSW | 198 37.8 52.8 36.0
8/30/26 - 2215 46.6 39.9 55 31.4 40.2 SSW | 198 13.6 19.7 SSW | 200 37.8 52.8 36.0
8/30/26 - 2200 47.0 40.5 55 31.7 40.5 SSW | 200 14.0 18.9 SSW | 207 37.8 52.8 36.0
8/30/26 - 2145 47.1 40.4 54 31.4 40.4 SSW | 201 14.8 20.4 SSW | 206 37.8 52.8 36.0
8/30/26 - 2130 46.9 40.2 50 29.4 39.6 SSW | 205 14.5 19.7 SSW | 203 37.8 52.8 36.0
8/30/26 - 2115 47.0 40.2 50 29.2 39.6 SSW | 205 14.9 19.9 SSW | 204 37.8 52.8 36.0
8/30/26 - 2100 46.6 39.6 52 30.0 39.7 SSW | 203 15.2 20.4 SSW | 207 37.8 52.8 36.0
8/30/26 - 2045 45.9 39.6 35 19.4 36.2 SSW | 208 12.1 16.8 SSW | 208 37.8 52.8 36.0
8/30/26 - 2030 47.3 40.8 31 18.1 36.6 SSW | 208 13.6 19.0 SSW | 212 37.8 52.8 36.0
8/30/26 - 2015 46.8 39.9 39 22.9 37.5 SSW | 212 14.8 20.1 SSW | 213 37.8 52.8 36.0
8/30/26 - 2000 46.8 39.7 43 25.6 38.3 SSW | 213 15.5 21.2 SSW | 213 37.8 52.8 36.0
8/30/26 - 1945 46.5 39.0 47 27.5 38.8 SW | 214 17.6 23.4 SW | 215 37.8 52.8 36.0
8/30/26 - 1930 46.7 38.9 47 27.8 39.0 SW | 215 19.1 25.5 SW | 215 37.8 52.8 36.0
8/30/26 - 1915 47.0 38.7 49 28.7 39.4 SW | 214 21.6 28.1 SW | 214 37.8 52.8 36.0
8/30/26 - 1900 47.2 38.9 51 30.2 40.0 SW | 219 22.1 29.2 SW | 215 37.8 52.8 36.0
8/30/26 - 1845 48.0 40.3 51 31.0 40.7 SW | 221 19.4 27.9 SW | 233 37.8 52.8 36.0
8/30/26 - 1830 48.0 40.3 52 31.3 40.8 SW | 221 20.8 26.9 SW | 224 37.8 52.8 36.0
8/30/26 - 1815 48.8 41.2 55 33.4 42.0 SW | 223 21.2 28.7 SW | 219 37.8 52.8 36.0
8/30/26 - 1800 49.4 41.8 55 34.0 42.6 SW | 220 22.0 30.1 SW | 217 37.8 52.8 36.0
8/30/26 - 1745 50.3 - 53 33.7 42.9 SW | 224 21.7 30.2 SW | 220 37.8 52.8 36.0
8/30/26 - 1730 51.4 - 50 33.2 43.2 SW | 228 21.6 29.7 SW | 219 37.8 52.8 36.0
8/30/26 - 1715 51.6 - 47 32.2 43.0 SW | 226 20.2 29.3 SW | 228 37.8 52.8 36.0
8/30/26 - 1700 51.4 - 48 32.2 42.9 SW | 229 21.6 31.0 SW | 233 37.8 52.8 36.0
8/30/26 - 1645 52.0 - 47 32.2 43.1 SW | 226 19.3 29.6 SSW | 205 37.8 52.8 36.0
8/30/26 - 1630 51.9 - 46 32.1 43.0 SW | 234 17.3 29.8 SW | 236 37.8 52.8 36.0
8/30/26 - 1615 52.0 - 47 32.3 43.2 SW | 227 18.4 29.9 SW | 228 37.8 52.8 36.0
8/30/26 - 1600 51.9 - 48 32.7 43.3 SW | 230 17.3 27.7 SSW | 207 37.8 52.8 36.0
8/30/26 - 1545 52.4 - 46 32.4 43.4 SW | 235 16.7 31.2 SW | 233 37.8 52.8 36.0
8/30/26 - 1530 52.3 - 45 31.7 43.1 SW | 228 18.5 32.6 WSW | 239 37.8 52.8 36.0
8/30/26 - 1515 52.2 - 43 30.2 42.5 SW | 234 17.1 33.5 SW | 226 37.8 52.8 36.0
8/30/26 - 1500 52.4 - 41 29.1 42.3 SW | 229 18.2 29.5 SW | 226 37.8 52.8 36.0
8/30/26 - 1445 52.2 - 38 27.1 41.5 SW | 236 15.7 28.9 SW | 231 37.8 52.7 36.0
8/30/26 - 1430 52.4 - 36 26.2 41.3 SW | 227 15.7 26.9 SW | 222 37.8 52.7 36.0
8/30/26 - 1415 52.4 - 36 26.1 41.3 SW | 232 16.1 28.5 SW | 226 37.8 52.7 36.0
8/30/26 - 1400 52.1 - 34 24.8 40.8 SW | 236 14.1 26.4 SW | 223 37.8 52.7 36.0
8/30/26 - 1345 52.1 - 32 23.4 40.4 SW | 231 16.4 27.7 SW | 227 37.8 52.7 36.0
8/30/26 - 1330 51.8 - 30 21.7 39.8 SW | 226 16.6 25.7 SW | 228 37.8 52.1 36.0
8/30/26 - 1315 51.5 - 32 22.3 39.8 WSW | 239 13.5 23.3 SW | 226 37.8 51.8 36.0
8/30/26 - 1300 50.9 - 30 20.9 39.2 SW | 235 12.7 23.3 SW | 231 37.8 51.3 36.0
8/30/26 - 1245 50.9 - 31 21.6 39.3 WSW | 238 11.2 19.8 SW | 233 37.8 51.3 36.0
8/30/26 - 1230 50.7 - 34 23.3 39.7 SW | 233 12.8 21.7 SW | 232 37.8 51.0 36.0
8/30/26 - 1215 50.4 - 36 24.5 39.8 SW | 225 11.9 21.8 SW | 223 37.8 50.8 36.0
8/30/26 - 1200 49.7 44.5 36 24.1 39.4 SW | 231 9.8 17.9 SW | 228 37.8 50.0 36.0
8/30/26 - 1145 49.5 45.6 36 23.6 39.1 WSW | 238 6.2 12.7 SW | 227 37.8 49.7 36.0
Max 52.4 45.6 98 38.1 43.7 - 35.2 45.4 - 45.8 52.8 45.4
Avg 43.4 32.7 63 30.3 38.0 - 19.0 26.5 - - - -
Min 31.1 14.8 30 18.1 30.7 - 0.4 1.4 - 30.9 35.2 14.0